CheckWX is a tool to help pilots better visualize weather data.  It is not intended as a substitute for an official pre-flight weather briefing.

00:26:03 UTC

1A9 METAR
Prattville - Grouby Field Airport
Prattville, Alabama, USA
Current

11 mins ago

K1A9 210015Z AUTO 27003KT 10SM CLR 16/03 A2992 RMK AO2 T01570029
Observed
Apr-21 @ 00:15 UTC
Wind
  • 270° at 3 KTS
Visibility
10 SM
Flight Rules
VFR
Cloud Levels
  • Clear skies
Temperature
16°C / 61°F
Dewpoint
C / 37°F
Humidity
42%
Altimeter
29.92" Hg
Pressure
1013.22 hPa
Previous

31 mins ago

K1A9 202355Z AUTO 29005KT 10SM CLR 17/02 A2991 RMK AO2 T01680018 10193 20163
Observed
Apr-20 @ 23:55 UTC
Wind
  • 290° at 5 KTS
Visibility
10 SM
Flight Rules
VFR
Cloud Levels
  • Clear skies
Temperature
17°C / 63°F
Dewpoint
C / 36°F
Humidity
37%
Altimeter
29.91" Hg
Pressure
1012.92 hPa
Previous

51 mins ago

K1A9 202335Z AUTO 30008G14KT 10SM CLR 18/02 A2990 RMK AO2 T01770016
Observed
Apr-20 @ 23:35 UTC
Wind
  • 300° at 8 KTS
  • Gusting to 14 KTS
Visibility
10 SM
Flight Rules
VFR
Cloud Levels
  • Clear skies
Temperature
18°C / 64°F
Dewpoint
C / 36°F
Humidity
34%
Altimeter
29.9" Hg
Pressure
1012.52 hPa